SIA361 WMKK-WSSS
Flight info
| Callsign | SIA361 |
|---|---|
| Flight time | 0h 37m |
| Altitude | 27000 |
| Route | RUSBU1D RUSBU Y511 TOPOR A464 ARAMA DCT TEBUN TEBUN1A |
| Aircraft | A359/H-SDE2E3GHIJ3J4J5LM1ORWXY/LB1D1 |
Departure
| Time | 2026-05-04 14:59 |
|---|---|
| Airport | Kuala Lumpur International Airport (WMKK) |
Arrival
| Time | 2026-05-04 15:36 |
|---|---|
| Airport | Singapore Changi Airport (WSSS) |
| Time | Latitude | Longitude | Altitude | Speed | Heading |
|---|---|---|---|---|---|
| 2026-05-04 14:08 | 2.75388 | 101.70839 | 64 ft | 0 kts | 326° |
| 2026-05-04 14:43 | 2.75383 | 101.70842 | 55 ft | 3 kts | 326° |
| 2026-05-04 14:43 | 2.75367 | 101.70853 | 55 ft | 3 kts | 326° |
| 2026-05-04 14:44 | 2.75352 | 101.70863 | 55 ft | 3 kts | 326° |
| 2026-05-04 14:44 | 2.75333 | 101.70871 | 55 ft | 3 kts | 8° |
| 2026-05-04 14:44 | 2.75313 | 101.70864 | 55 ft | 2 kts | 50° |
| 2026-05-04 14:44 | 2.75312 | 101.70862 | 55 ft | 0 kts | 50° |
| 2026-05-04 14:53 | 2.75312 | 101.70863 | 55 ft | 2 kts | 56° |
| 2026-05-04 14:53 | 2.75346 | 101.70925 | 59 ft | 18 kts | 56° |
| 2026-05-04 14:54 | 2.75424 | 101.71038 | 57 ft | 22 kts | 56° |
| 2026-05-04 14:54 | 2.75504 | 101.71158 | 55 ft | 21 kts | 56° |
| 2026-05-04 14:54 | 2.75601 | 101.71300 | 55 ft | 28 kts | 54° |
| 2026-05-04 14:54 | 2.75639 | 101.71351 | 59 ft | 9 kts | 54° |
| 2026-05-04 14:55 | 2.75629 | 101.71444 | 56 ft | 20 kts | 136° |
| 2026-05-04 14:55 | 2.75490 | 101.71543 | 54 ft | 26 kts | 147° |
| 2026-05-04 14:55 | 2.75333 | 101.71647 | 54 ft | 28 kts | 146° |
| 2026-05-04 14:55 | 2.75167 | 101.71760 | 54 ft | 30 kts | 146° |
| 2026-05-04 14:56 | 2.74992 | 101.71877 | 59 ft | 31 kts | 146° |
| 2026-05-04 14:56 | 2.74810 | 101.71998 | 56 ft | 29 kts | 146° |
| 2026-05-04 14:56 | 2.74786 | 101.72015 | 59 ft | 1 kts | 143° |
| 2026-05-04 14:56 | 2.74758 | 101.72076 | 58 ft | 12 kts | 90° |
| 2026-05-04 14:57 | 2.74774 | 101.72105 | 61 ft | 6 kts | 60° |
| 2026-05-04 14:57 | 2.74812 | 101.72161 | 55 ft | 17 kts | 53° |
| 2026-05-04 14:57 | 2.74882 | 101.72169 | 57 ft | 10 kts | 334° |
| 2026-05-04 14:57 | 2.74936 | 101.72134 | 54 ft | 0 kts | 326° |
| 2026-05-04 14:58 | 2.74938 | 101.72132 | 54 ft | 4 kts | 326° |
| 2026-05-04 14:58 | 2.75136 | 101.72001 | 55 ft | 74 kts | 326° |
| 2026-05-04 14:58 | 2.75798 | 101.71557 | 54 ft | 151 kts | 326° |
| 2026-05-04 14:58 | 2.76816 | 101.70872 | 323 ft | 189 kts | 325° |
| 2026-05-04 14:59 | 2.77882 | 101.70148 | 1141 ft | 183 kts | 327° |
| 2026-05-04 14:59 | 2.78955 | 101.69471 | 1891 ft | 183 kts | 331° |
| 2026-05-04 14:59 | 2.81566 | 101.68389 | 2439 ft | 226 kts | 339° |
| 2026-05-04 15:00 | 2.83129 | 101.67806 | 2768 ft | 246 kts | 339° |
| 2026-05-04 15:00 | 2.84754 | 101.67210 | 3287 ft | 256 kts | 339° |
| 2026-05-04 15:00 | 2.86447 | 101.66595 | 3896 ft | 261 kts | 339° |
| 2026-05-04 15:01 | 2.90047 | 101.65894 | 5114 ft | 272 kts | 9° |
| 2026-05-04 15:01 | 2.91772 | 101.66652 | 5758 ft | 275 kts | 38° |
| 2026-05-04 15:01 | 2.92968 | 101.68131 | 6418 ft | 276 kts | 62° |
| 2026-05-04 15:01 | 2.93791 | 101.69880 | 7019 ft | 279 kts | 66° |
| 2026-05-04 15:02 | 2.94520 | 101.71698 | 7609 ft | 283 kts | 72° |
| 2026-05-04 15:02 | 2.94742 | 101.73647 | 8178 ft | 285 kts | 95° |
| 2026-05-04 15:02 | 2.94195 | 101.75554 | 8786 ft | 287 kts | 112° |
| 2026-05-04 15:02 | 2.93247 | 101.77327 | 9382 ft | 291 kts | 125° |
| 2026-05-04 15:03 | 2.91887 | 101.78826 | 9960 ft | 293 kts | 136° |
| 2026-05-04 15:03 | 2.90346 | 101.80204 | 10342 ft | 303 kts | 139° |
| 2026-05-04 15:03 | 2.88703 | 101.81591 | 10590 ft | 316 kts | 140° |
| 2026-05-04 15:03 | 2.86967 | 101.83020 | 10819 ft | 329 kts | 140° |
| 2026-05-04 15:04 | 2.85159 | 101.84492 | 11061 ft | 341 kts | 140° |
| 2026-05-04 15:04 | 2.83282 | 101.86011 | 11265 ft | 352 kts | 141° |
| 2026-05-04 15:04 | 2.81359 | 101.87563 | 11560 ft | 359 kts | 141° |
| 2026-05-04 15:04 | 2.79399 | 101.89143 | 11969 ft | 363 kts | 141° |
| 2026-05-04 15:05 | 2.77425 | 101.90733 | 12393 ft | 365 kts | 140° |
| 2026-05-04 15:05 | 2.75443 | 101.92328 | 12818 ft | 367 kts | 140° |
| 2026-05-04 15:05 | 2.73440 | 101.93941 | 13215 ft | 370 kts | 140° |
| 2026-05-04 15:05 | 2.71434 | 101.95556 | 13642 ft | 372 kts | 140° |
| 2026-05-04 15:06 | 2.69413 | 101.97182 | 14011 ft | 374 kts | 140° |
| 2026-05-04 15:06 | 2.67381 | 101.98818 | 14359 ft | 376 kts | 140° |
| 2026-05-04 15:06 | 2.65337 | 102.00463 | 14725 ft | 378 kts | 140° |
| 2026-05-04 15:07 | 2.61223 | 102.03773 | 15425 ft | 381 kts | 140° |
| 2026-05-04 15:07 | 2.59152 | 102.05440 | 15810 ft | 383 kts | 140° |
| 2026-05-04 15:07 | 2.57073 | 102.07113 | 16171 ft | 385 kts | 140° |
| 2026-05-04 15:07 | 2.54979 | 102.08798 | 16537 ft | 387 kts | 140° |
| 2026-05-04 15:08 | 2.52876 | 102.10490 | 16900 ft | 389 kts | 140° |
| 2026-05-04 15:08 | 2.50764 | 102.12189 | 17228 ft | 391 kts | 140° |
| 2026-05-04 15:08 | 2.48640 | 102.13897 | 17592 ft | 393 kts | 140° |
| 2026-05-04 15:08 | 2.46504 | 102.15616 | 17920 ft | 395 kts | 140° |
| 2026-05-04 15:09 | 2.44361 | 102.17340 | 18253 ft | 397 kts | 140° |
| 2026-05-04 15:09 | 2.42204 | 102.19075 | 18552 ft | 399 kts | 140° |
| 2026-05-04 15:09 | 2.40036 | 102.20819 | 18834 ft | 401 kts | 140° |
| 2026-05-04 15:10 | 2.35670 | 102.24330 | 19413 ft | 404 kts | 140° |
| 2026-05-04 15:10 | 2.33500 | 102.26076 | 19685 ft | 406 kts | 140° |
| 2026-05-04 15:10 | 2.29083 | 102.29627 | 20239 ft | 409 kts | 140° |
| 2026-05-04 15:11 | 2.26859 | 102.31416 | 20520 ft | 411 kts | 140° |
| 2026-05-04 15:11 | 2.24625 | 102.33213 | 20791 ft | 413 kts | 140° |
| 2026-05-04 15:11 | 2.22381 | 102.35017 | 21075 ft | 414 kts | 140° |
| 2026-05-04 15:11 | 2.20130 | 102.36826 | 21345 ft | 416 kts | 140° |
| 2026-05-04 15:12 | 2.17872 | 102.38642 | 21608 ft | 417 kts | 140° |
| 2026-05-04 15:12 | 2.15604 | 102.40466 | 21855 ft | 419 kts | 140° |
| 2026-05-04 15:12 | 2.13327 | 102.42296 | 22117 ft | 421 kts | 140° |
| 2026-05-04 15:12 | 2.11044 | 102.44132 | 22375 ft | 423 kts | 140° |
| 2026-05-04 15:13 | 2.08747 | 102.45979 | 22602 ft | 425 kts | 140° |
| 2026-05-04 15:13 | 2.06442 | 102.47831 | 22855 ft | 426 kts | 140° |
| 2026-05-04 15:13 | 2.04128 | 102.49696 | 23097 ft | 428 kts | 140° |
| 2026-05-04 15:13 | 2.01953 | 102.51723 | 23331 ft | 428 kts | 131° |
| 2026-05-04 15:14 | 2.00016 | 102.53995 | 23564 ft | 429 kts | 127° |
| 2026-05-04 15:14 | 1.98186 | 102.56363 | 23767 ft | 431 kts | 126° |
| 2026-05-04 15:14 | 1.96408 | 102.58770 | 23988 ft | 432 kts | 125° |
| 2026-05-04 15:14 | 1.94633 | 102.61202 | 24200 ft | 433 kts | 125° |
| 2026-05-04 15:15 | 1.92850 | 102.63635 | 24419 ft | 434 kts | 125° |
| 2026-05-04 15:15 | 1.91052 | 102.66067 | 24645 ft | 436 kts | 126° |
| 2026-05-04 15:15 | 1.89239 | 102.68498 | 24845 ft | 437 kts | 126° |
| 2026-05-04 15:16 | 1.85492 | 102.73486 | 24913 ft | 462 kts | 126° |
| 2026-05-04 15:16 | 1.83532 | 102.76085 | 24913 ft | 474 kts | 126° |
| 2026-05-04 15:16 | 1.79551 | 102.81361 | 24911 ft | 475 kts | 126° |
| 2026-05-04 15:17 | 1.77559 | 102.84002 | 24904 ft | 475 kts | 126° |
| 2026-05-04 15:17 | 1.73705 | 102.89351 | 24904 ft | 474 kts | 120° |
| 2026-05-04 15:17 | 1.72057 | 102.92201 | 24903 ft | 474 kts | 118° |
| 2026-05-04 15:18 | 1.70466 | 102.95089 | 24902 ft | 474 kts | 117° |
| 2026-05-04 15:18 | 1.68909 | 102.97995 | 24903 ft | 474 kts | 117° |
| 2026-05-04 15:18 | 1.67387 | 103.00871 | 24903 ft | 474 kts | 117° |
| 2026-05-04 15:19 | 1.64312 | 103.06691 | 24904 ft | 474 kts | 117° |
| 2026-05-04 15:19 | 1.62559 | 103.09481 | 24897 ft | 475 kts | 127° |
| 2026-05-04 15:19 | 1.57411 | 103.13562 | 24901 ft | 479 kts | 153° |
| 2026-05-04 15:20 | 1.54339 | 103.14864 | 24896 ft | 480 kts | 156° |
| 2026-05-04 15:20 | 1.51239 | 103.16097 | 24898 ft | 480 kts | 156° |
| 2026-05-04 15:20 | 1.48136 | 103.17325 | 24891 ft | 480 kts | 156° |
| 2026-05-04 15:20 | 1.45026 | 103.18558 | 24890 ft | 480 kts | 156° |
| 2026-05-04 15:21 | 1.41924 | 103.19790 | 24889 ft | 480 kts | 156° |
| 2026-05-04 15:21 | 1.38820 | 103.21024 | 24887 ft | 480 kts | 156° |
| 2026-05-04 15:21 | 1.32716 | 103.23452 | 23602 ft | 471 kts | 156° |
| 2026-05-04 15:22 | 1.29674 | 103.24663 | 22558 ft | 464 kts | 156° |
| 2026-05-04 15:22 | 1.26708 | 103.25843 | 21047 ft | 456 kts | 156° |
| 2026-05-04 15:22 | 1.21165 | 103.28689 | 18244 ft | 440 kts | 148° |
| 2026-05-04 15:23 | 1.18563 | 103.30202 | 17351 ft | 420 kts | 148° |
| 2026-05-04 15:23 | 1.16062 | 103.31655 | 16693 ft | 414 kts | 148° |
| 2026-05-04 15:23 | 1.13578 | 103.33098 | 16016 ft | 412 kts | 148° |
| 2026-05-04 15:23 | 1.11109 | 103.34529 | 15330 ft | 409 kts | 148° |
| 2026-05-04 15:24 | 1.06273 | 103.37330 | 13968 ft | 401 kts | 149° |
| 2026-05-04 15:24 | 1.01483 | 103.40112 | 12498 ft | 394 kts | 148° |
| 2026-05-04 15:25 | 0.99340 | 103.41785 | 11788 ft | 390 kts | 133° |
| 2026-05-04 15:25 | 0.97858 | 103.44028 | 11081 ft | 387 kts | 113° |
| 2026-05-04 15:25 | 0.97232 | 103.46611 | 10668 ft | 376 kts | 96° |
| 2026-05-04 15:26 | 0.96831 | 103.51563 | 10410 ft | 340 kts | 94° |
| 2026-05-04 15:26 | 0.96654 | 103.53860 | 10287 ft | 323 kts | 94° |
| 2026-05-04 15:26 | 0.96578 | 103.58143 | 10041 ft | 296 kts | 83° |
| 2026-05-04 15:27 | 0.96843 | 103.60144 | 9926 ft | 286 kts | 82° |
| 2026-05-04 15:27 | 0.97420 | 103.64195 | 9547 ft | 299 kts | 82° |
| 2026-05-04 15:28 | 0.97998 | 103.68301 | 8642 ft | 296 kts | 82° |
| 2026-05-04 15:28 | 0.98292 | 103.70328 | 8281 ft | 294 kts | 80° |
| 2026-05-04 15:28 | 0.99987 | 103.73983 | 7609 ft | 290 kts | 56° |
| 2026-05-04 15:29 | 1.01086 | 103.75668 | 7253 ft | 289 kts | 56° |
| 2026-05-04 15:30 | 1.05409 | 103.82353 | 5882 ft | 283 kts | 57° |
| 2026-05-04 15:30 | 1.08627 | 103.87242 | 4829 ft | 278 kts | 47° |
| 2026-05-04 15:31 | 1.12132 | 103.88649 | 3874 ft | 276 kts | 11° |
| 2026-05-04 15:31 | 1.14007 | 103.89054 | 3421 ft | 275 kts | 14° |
| 2026-05-04 15:32 | 1.19036 | 103.90947 | 2997 ft | 238 kts | 24° |
| 2026-05-04 15:32 | 1.21905 | 103.92244 | 2734 ft | 217 kts | 23° |
| 2026-05-04 15:33 | 1.24556 | 103.93371 | 2405 ft | 196 kts | 22° |
| 2026-05-04 15:34 | 1.28002 | 103.94797 | 1598 ft | 169 kts | 24° |
| 2026-05-04 15:34 | 1.29075 | 103.95268 | 1198 ft | 166 kts | 24° |
| 2026-05-04 15:34 | 1.31059 | 103.96132 | 751 ft | 150 kts | 23° |
| 2026-05-04 15:35 | 1.32927 | 103.96923 | 462 ft | 143 kts | 24° |
| 2026-05-04 15:35 | 1.33850 | 103.97303 | 310 ft | 142 kts | 23° |
| 2026-05-04 15:35 | 1.34737 | 103.97676 | 114 ft | 134 kts | 22° |
| 2026-05-04 15:36 | 1.36050 | 103.98231 | 33 ft | 37 kts | 22° |
| 2026-05-04 15:36 | 1.36258 | 103.98319 | 34 ft | 31 kts | 23° |
| 2026-05-04 15:36 | 1.36409 | 103.98382 | 35 ft | 41 kts | 23° |
| 2026-05-04 15:37 | 1.36591 | 103.98469 | 36 ft | 9 kts | 35° |
| 2026-05-04 15:37 | 1.36686 | 103.98553 | 35 ft | 28 kts | 47° |
| 2026-05-04 15:37 | 1.36762 | 103.98648 | 33 ft | 0 kts | 52° |
| 2026-05-04 15:39 | 1.36771 | 103.98660 | 33 ft | 10 kts | 52° |
| 2026-05-04 15:39 | 1.36819 | 103.98819 | 32 ft | 29 kts | 111° |
| 2026-05-04 15:39 | 1.36717 | 103.99058 | 31 ft | 1 kts | 112° |
| 2026-05-04 15:40 | 1.36675 | 103.99113 | 31 ft | 11 kts | 158° |
| 2026-05-04 15:40 | 1.36576 | 103.99125 | 31 ft | 20 kts | 172° |
| 2026-05-04 15:40 | 1.36560 | 103.99128 | 31 ft | 0 kts | 172° |
| 2026-05-04 15:41 | 1.36557 | 103.99126 | 31 ft | 3 kts | 187° |
| 2026-05-04 15:41 | 1.36541 | 103.99099 | 31 ft | 5 kts | 258° |
| 2026-05-04 15:42 | 1.36538 | 103.99075 | 31 ft | 0 kts | 263° |
| 2026-05-04 15:45 | 1.36536 | 103.99064 | 31 ft | 0 kts | 263° |